Terminal Aerodrome Forecast
Issued by NWS

Home | Current Version | Previous Version | Text Only | Print | Product List | Glossary On
Versions: 1 2 3 4 5 6 7 8 9 10 11 12 13 14 15 16 17 18
000
FTUS43 KLSX 300818 AAC
TAFUIN
TAF AMD
KUIN 300818Z 3008/3106 VRB04KT 3SM BR SCT004 BKN025
      TEMPO 3008/3012 1/4SM FG VV004
     FM301200 VRB02KT 5SM BR BKN005 BKN030
      TEMPO 3012/3014 2SM BR
     FM301400 VRB05KT P6SM SCT030
     FM310000 16006KT P6SM SCT040=

USA.gov is the U.S. government's official web portal to all federal, state and local government web resources and services.